sensor_id;sensor_type;location;lat;lon;timestamp;pressure;altitude;pressure_sealevel;temperature;humidity
71573;BME280;59408;51.032;9.410;2023-05-18T00:02:26;100028.06;;;1.74;100.00
71573;BME280;59408;51.032;9.410;2023-05-18T00:04:52;100026.47;;;1.73;100.00
71573;BME280;59408;51.032;9.410;2023-05-18T00:07:19;100024.84;;;1.72;100.00
71573;BME280;59408;51.032;9.410;2023-05-18T00:09:46;100021.59;;;1.70;100.00
71573;BME280;59408;51.032;9.410;2023-05-18T00:12:12;100028.84;;;1.69;100.00
71573;BME280;59408;51.032;9.410;2023-05-18T00:14:39;100026.91;;;1.64;100.00
71573;BME280;59408;51.032;9.410;2023-05-18T00:17:06;100031.19;;;1.60;100.00
71573;BME280;59408;51.032;9.410;2023-05-18T00:19:34;100019.59;;;1.55;100.00
71573;BME280;59408;51.032;9.410;2023-05-18T00:22:00;100027.09;;;1.53;100.00
71573;BME280;59408;51.032;9.410;2023-05-18T00:24:27;100025.97;;;1.49;100.00
71573;BME280;59408;51.032;9.410;2023-05-18T00:26:54;100023.53;;;1.47;100.00
71573;BME280;59408;51.032;9.410;2023-05-18T00:29:20;100027.00;;;1.43;100.00
71573;BME280;59408;51.032;9.410;2023-05-18T00:31:47;100032.03;;;1.39;100.00
71573;BME280;59408;51.032;9.410;2023-05-18T00:34:14;100030.41;;;1.38;100.00
71573;BME280;59408;51.032;9.410;2023-05-18T00:36:42;100029.59;;;1.38;100.00
71573;BME280;59408;51.032;9.410;2023-05-18T00:39:09;100030.38;;;1.33;100.00
71573;BME280;59408;51.032;9.410;2023-05-18T00:41:36;100034.38;;;1.31;100.00
71573;BME280;59408;51.032;9.410;2023-05-18T00:44:02;100034.91;;;1.28;100.00
71573;BME280;59408;51.032;9.410;2023-05-18T00:46:29;100025.72;;;1.23;100.00
71573;BME280;59408;51.032;9.410;2023-05-18T00:48:56;100025.94;;;1.17;100.00
71573;BME280;59408;51.032;9.410;2023-05-18T00:51:23;100026.66;;;1.12;100.00
71573;BME280;59408;51.032;9.410;2023-05-18T00:53:53;100026.09;;;1.10;100.00
71573;BME280;59408;51.032;9.410;2023-05-18T00:56:20;100032.56;;;1.09;100.00
71573;BME280;59408;51.032;9.410;2023-05-18T00:58:48;100027.44;;;1.08;100.00
71573;BME280;59408;51.032;9.410;2023-05-18T01:01:15;100027.69;;;1.06;100.00
71573;BME280;59408;51.032;9.410;2023-05-18T01:03:42;100026.56;;;1.02;100.00
71573;BME280;59408;51.032;9.410;2023-05-18T01:06:09;100031.38;;;1.00;100.00
71573;BME280;59408;51.032;9.410;2023-05-18T01:08:36;100032.94;;;0.96;100.00
71573;BME280;59408;51.032;9.410;2023-05-18T01:11:13;100028.88;;;0.94;100.00
71573;BME280;59408;51.032;9.410;2023-05-18T01:13:46;100025.00;;;0.84;100.00
71573;BME280;59408;51.032;9.410;2023-05-18T01:16:22;100026.59;;;0.80;100.00
71573;BME280;59408;51.032;9.410;2023-05-18T01:18:54;100032.69;;;0.76;100.00
71573;BME280;59408;51.032;9.410;2023-05-18T01:21:34;100038.31;;;0.74;100.00
71573;BME280;59408;51.032;9.410;2023-05-18T01:24:18;100026.75;;;0.74;100.00
71573;BME280;59408;51.032;9.410;2023-05-18T01:26:49;100029.97;;;0.71;100.00
71573;BME280;59408;51.032;9.410;2023-05-18T01:29:18;100036.63;;;0.68;100.00
71573;BME280;59408;51.032;9.410;2023-05-18T01:31:46;100036.88;;;0.67;100.00
71573;BME280;59408;51.032;9.410;2023-05-18T01:34:12;100043.53;;;0.64;100.00
71573;BME280;59408;51.032;9.410;2023-05-18T01:36:39;100039.50;;;0.62;100.00
71573;BME280;59408;51.032;9.410;2023-05-18T01:39:06;100043.25;;;0.61;100.00
71573;BME280;59408;51.032;9.410;2023-05-18T01:41:36;100034.00;;;0.52;100.00
71573;BME280;59408;51.032;9.410;2023-05-18T01:44:10;100032.63;;;0.49;100.00
71573;BME280;59408;51.032;9.410;2023-05-18T01:46:44;100032.84;;;0.47;100.00
71573;BME280;59408;51.032;9.410;2023-05-18T01:49:16;100034.34;;;0.38;100.00
71573;BME280;59408;51.032;9.410;2023-05-18T01:51:46;100039.94;;;0.37;100.00
71573;BME280;59408;51.032;9.410;2023-05-18T01:54:16;100038.84;;;0.33;100.00
71573;BME280;59408;51.032;9.410;2023-05-18T01:56:46;100032.09;;;0.30;100.00
71573;BME280;59408;51.032;9.410;2023-05-18T01:59:15;100039.84;;;0.27;100.00
71573;BME280;59408;51.032;9.410;2023-05-18T02:01:42;100043.81;;;0.24;100.00
71573;BME280;59408;51.032;9.410;2023-05-18T02:04:09;100047.56;;;0.23;100.00
71573;BME280;59408;51.032;9.410;2023-05-18T02:06:36;100041.03;;;0.19;100.00
71573;BME280;59408;51.032;9.410;2023-05-18T02:09:03;100037.53;;;0.19;100.00
71573;BME280;59408;51.032;9.410;2023-05-18T02:11:30;100034.88;;;0.19;100.00
71573;BME280;59408;51.032;9.410;2023-05-18T02:13:57;100033.50;;;0.16;100.00
71573;BME280;59408;51.032;9.410;2023-05-18T02:16:25;100042.84;;;0.13;100.00
71573;BME280;59408;51.032;9.410;2023-05-18T02:18:51;100036.09;;;0.11;100.00
71573;BME280;59408;51.032;9.410;2023-05-18T02:21:18;100030.66;;;0.06;100.00
71573;BME280;59408;51.032;9.410;2023-05-18T02:23:45;100031.72;;;0.05;100.00
71573;BME280;59408;51.032;9.410;2023-05-18T02:26:11;100034.06;;;0.01;100.00
71573;BME280;59408;51.032;9.410;2023-05-18T02:28:38;100038.06;;;-0.01;100.00
71573;BME280;59408;51.032;9.410;2023-05-18T02:31:06;100039.84;;;-0.07;100.00
71573;BME280;59408;51.032;9.410;2023-05-18T02:33:34;100040.34;;;-0.10;100.00
71573;BME280;59408;51.032;9.410;2023-05-18T02:36:01;100028.00;;;-0.11;100.00
71573;BME280;59408;51.032;9.410;2023-05-18T02:38:27;100036.28;;;-0.12;100.00
71573;BME280;59408;51.032;9.410;2023-05-18T02:40:54;100038.63;;;-0.16;100.00
71573;BME280;59408;51.032;9.410;2023-05-18T02:43:20;100042.88;;;-0.20;100.00
71573;BME280;59408;51.032;9.410;2023-05-18T02:45:47;100033.78;;;-0.19;100.00
71573;BME280;59408;51.032;9.410;2023-05-18T02:48:14;100040.19;;;-0.20;100.00
71573;BME280;59408;51.032;9.410;2023-05-18T02:50:42;100032.63;;;-0.23;100.00
71573;BME280;59408;51.032;9.410;2023-05-18T02:53:08;100033.44;;;-0.22;100.00
71573;BME280;59408;51.032;9.410;2023-05-18T02:55:35;100038.81;;;-0.22;100.00
71573;BME280;59408;51.032;9.410;2023-05-18T02:58:02;100038.22;;;-0.25;100.00
71573;BME280;59408;51.032;9.410;2023-05-18T03:00:28;100049.44;;;-0.28;100.00
71573;BME280;59408;51.032;9.410;2023-05-18T03:02:55;100044.09;;;-0.28;100.00
71573;BME280;59408;51.032;9.410;2023-05-18T03:05:22;100048.88;;;-0.30;100.00
71573;BME280;59408;51.032;9.410;2023-05-18T03:07:50;100050.41;;;-0.34;100.00
71573;BME280;59408;51.032;9.410;2023-05-18T03:10:17;100048.22;;;-0.37;100.00
71573;BME280;59408;51.032;9.410;2023-05-18T03:12:44;100050.09;;;-0.37;100.00
71573;BME280;59408;51.032;9.410;2023-05-18T03:15:11;100044.97;;;-0.39;100.00
71573;BME280;59408;51.032;9.410;2023-05-18T03:17:38;100045.44;;;-0.42;100.00
71573;BME280;59408;51.032;9.410;2023-05-18T03:20:05;100042.69;;;-0.47;100.00
71573;BME280;59408;51.032;9.410;2023-05-18T03:22:32;100043.97;;;-0.49;100.00
71573;BME280;59408;51.032;9.410;2023-05-18T03:25:00;100045.03;;;-0.50;100.00
71573;BME280;59408;51.032;9.410;2023-05-18T03:27:27;100042.34;;;-0.50;100.00
71573;BME280;59408;51.032;9.410;2023-05-18T03:29:53;100045.50;;;-0.53;100.00
71573;BME280;59408;51.032;9.410;2023-05-18T03:32:20;100039.31;;;-0.54;100.00
71573;BME280;59408;51.032;9.410;2023-05-18T03:34:47;100045.25;;;-0.52;100.00
71573;BME280;59408;51.032;9.410;2023-05-18T03:37:13;100049.00;;;-0.53;100.00
71573;BME280;59408;51.032;9.410;2023-05-18T03:39:40;100042.59;;;-0.52;100.00
71573;BME280;59408;51.032;9.410;2023-05-18T03:42:08;100045.25;;;-0.52;100.00
71573;BME280;59408;51.032;9.410;2023-05-18T03:44:35;100043.09;;;-0.55;100.00
71573;BME280;59408;51.032;9.410;2023-05-18T03:47:02;100049.22;;;-0.54;100.00
71573;BME280;59408;51.032;9.410;2023-05-18T03:49:29;100039.59;;;-0.55;100.00
71573;BME280;59408;51.032;9.410;2023-05-18T03:51:55;100041.47;;;-0.56;100.00
71573;BME280;59408;51.032;9.410;2023-05-18T03:54:22;100039.00;;;-0.57;100.00
71573;BME280;59408;51.032;9.410;2023-05-18T03:56:48;100045.19;;;-0.57;100.00
71573;BME280;59408;51.032;9.410;2023-05-18T03:59:17;100046.25;;;-0.58;100.00
71573;BME280;59408;51.032;9.410;2023-05-18T04:01:43;100046.00;;;-0.56;100.00
71573;BME280;59408;51.032;9.410;2023-05-18T04:04:10;100059.94;;;-0.54;100.00
71573;BME280;59408;51.032;9.410;2023-05-18T04:06:36;100051.13;;;-0.55;100.00
71573;BME280;59408;51.032;9.410;2023-05-18T04:09:03;100051.91;;;-0.54;100.00
71573;BME280;59408;51.032;9.410;2023-05-18T04:11:30;100042.59;;;-0.52;100.00
71573;BME280;59408;51.032;9.410;2023-05-18T04:13:56;100046.09;;;-0.51;100.00
71573;BME280;59408;51.032;9.410;2023-05-18T04:16:24;100049.56;;;-0.51;100.00
71573;BME280;59408;51.032;9.410;2023-05-18T04:18:51;100050.97;;;-0.48;100.00
71573;BME280;59408;51.032;9.410;2023-05-18T04:21:18;100053.41;;;-0.47;100.00
71573;BME280;59408;51.032;9.410;2023-05-18T04:23:45;100063.06;;;-0.46;100.00
71573;BME280;59408;51.032;9.410;2023-05-18T04:26:12;100058.50;;;-0.45;100.00
71573;BME280;59408;51.032;9.410;2023-05-18T04:28:39;100058.84;;;-0.42;100.00
71573;BME280;59408;51.032;9.410;2023-05-18T04:31:05;100062.91;;;-0.39;100.00
71573;BME280;59408;51.032;9.410;2023-05-18T04:33:33;100068.34;;;-0.34;100.00
71573;BME280;59408;51.032;9.410;2023-05-18T04:36:00;100067.63;;;-0.30;100.00
71573;BME280;59408;51.032;9.410;2023-05-18T04:38:27;100066.66;;;-0.23;100.00
71573;BME280;59408;51.032;9.410;2023-05-18T04:40:53;100075.03;;;-0.20;100.00
71573;BME280;59408;51.032;9.410;2023-05-18T04:43:20;100077.22;;;-0.17;100.00
71573;BME280;59408;51.032;9.410;2023-05-18T04:45:46;100073.81;;;-0.12;100.00
71573;BME280;59408;51.032;9.410;2023-05-18T04:48:13;100077.09;;;-0.10;100.00
71573;BME280;59408;51.032;9.410;2023-05-18T04:50:41;100073.66;;;-0.06;100.00
71573;BME280;59408;51.032;9.410;2023-05-18T04:53:08;100070.50;;;-0.03;100.00
71573;BME280;59408;51.032;9.410;2023-05-18T04:55:34;100070.31;;;0.04;100.00
71573;BME280;59408;51.032;9.410;2023-05-18T04:58:01;100071.47;;;0.08;100.00
71573;BME280;59408;51.032;9.410;2023-05-18T05:00:28;100071.88;;;0.17;100.00
71573;BME280;59408;51.032;9.410;2023-05-18T05:02:56;100070.41;;;0.26;100.00
71573;BME280;59408;51.032;9.410;2023-05-18T05:05:23;100067.22;;;0.29;100.00
71573;BME280;59408;51.032;9.410;2023-05-18T05:07:52;100062.81;;;0.39;100.00
71573;BME280;59408;51.032;9.410;2023-05-18T05:10:19;100071.00;;;0.49;100.00
71573;BME280;59408;51.032;9.410;2023-05-18T05:12:46;100067.41;;;0.61;100.00
71573;BME280;59408;51.032;9.410;2023-05-18T05:15:15;100071.78;;;0.67;100.00
71573;BME280;59408;51.032;9.410;2023-05-18T05:17:41;100072.16;;;0.75;100.00
71573;BME280;59408;51.032;9.410;2023-05-18T05:20:08;100076.03;;;0.84;100.00
71573;BME280;59408;51.032;9.410;2023-05-18T05:22:35;100074.53;;;0.94;100.00
71573;BME280;59408;51.032;9.410;2023-05-18T05:25:04;100079.28;;;1.08;100.00
71573;BME280;59408;51.032;9.410;2023-05-18T05:27:31;100070.25;;;1.19;100.00
71573;BME280;59408;51.032;9.410;2023-05-18T05:29:58;100070.94;;;1.32;100.00
71573;BME280;59408;51.032;9.410;2023-05-18T05:32:25;100069.75;;;1.44;100.00
71573;BME280;59408;51.032;9.410;2023-05-18T05:34:52;100079.28;;;1.57;100.00
71573;BME280;59408;51.032;9.410;2023-05-18T05:37:18;100074.31;;;1.71;100.00
71573;BME280;59408;51.032;9.410;2023-05-18T05:39:45;100071.75;;;1.86;100.00
71573;BME280;59408;51.032;9.410;2023-05-18T05:42:13;100066.53;;;2.06;100.00
71573;BME280;59408;51.032;9.410;2023-05-18T05:44:40;100072.06;;;2.26;100.00
71573;BME280;59408;51.032;9.410;2023-05-18T05:47:07;100076.22;;;2.44;100.00
71573;BME280;59408;51.032;9.410;2023-05-18T05:49:34;100066.91;;;2.62;100.00
71573;BME280;59408;51.032;9.410;2023-05-18T05:52:00;100069.66;;;2.77;99.75
71573;BME280;59408;51.032;9.410;2023-05-18T05:54:27;100070.31;;;2.99;100.00
71573;BME280;59408;51.032;9.410;2023-05-18T05:56:54;100074.66;;;3.10;96.80
71573;BME280;59408;51.032;9.410;2023-05-18T05:59:22;100076.91;;;3.34;97.42
71573;BME280;59408;51.032;9.410;2023-05-18T06:01:48;100070.50;;;3.55;97.08
71573;BME280;59408;51.032;9.410;2023-05-18T06:04:15;100072.66;;;3.73;94.54
71573;BME280;59408;51.032;9.410;2023-05-18T06:06:42;100069.16;;;3.93;95.02
71573;BME280;59408;51.032;9.410;2023-05-18T06:09:08;100066.47;;;4.13;94.78
71573;BME280;59408;51.032;9.410;2023-05-18T06:11:35;100065.91;;;4.32;93.82
71573;BME280;59408;51.032;9.410;2023-05-18T06:14:01;100072.09;;;4.52;93.13
71573;BME280;59408;51.032;9.410;2023-05-18T06:16:29;100076.38;;;4.69;91.80
71573;BME280;59408;51.032;9.410;2023-05-18T06:18:56;100088.78;;;4.80;90.21
71573;BME280;59408;51.032;9.410;2023-05-18T06:21:29;100086.31;;;4.93;90.58
71573;BME280;59408;51.032;9.410;2023-05-18T06:23:56;100086.25;;;5.19;91.09
71573;BME280;59408;51.032;9.410;2023-05-18T06:26:34;100093.47;;;5.33;90.43
71573;BME280;59408;51.032;9.410;2023-05-18T06:29:01;100088.22;;;5.47;88.99
71573;BME280;59408;51.032;9.410;2023-05-18T06:37:51;100081.97;;;5.96;87.34
71573;BME280;59408;51.032;9.410;2023-05-18T06:40:18;100082.16;;;6.09;86.86
71573;BME280;59408;51.032;9.410;2023-05-18T06:42:50;100098.19;;;6.35;84.77
71573;BME280;59408;51.032;9.410;2023-05-18T06:45:20;100095.22;;;6.60;84.89
71573;BME280;59408;51.032;9.410;2023-05-18T06:47:51;100096.03;;;6.84;82.50
71573;BME280;59408;51.032;9.410;2023-05-18T06:50:40;100095.41;;;7.16;81.90
71573;BME280;59408;51.032;9.410;2023-05-18T06:53:13;100089.97;;;7.40;79.50
71573;BME280;59408;51.032;9.410;2023-05-18T06:55:41;100094.56;;;7.63;76.22
71573;BME280;59408;51.032;9.410;2023-05-18T06:58:08;100089.97;;;7.96;77.19
71573;BME280;59408;51.032;9.410;2023-05-18T07:00:43;100088.88;;;8.30;73.38
71573;BME280;59408;51.032;9.410;2023-05-18T07:03:31;100084.41;;;8.53;73.81
71573;BME280;59408;51.032;9.410;2023-05-18T07:05:58;100090.69;;;8.81;75.43
71573;BME280;59408;51.032;9.410;2023-05-18T07:08:40;100081.81;;;9.02;69.92
71573;BME280;59408;51.032;9.410;2023-05-18T07:11:10;100089.91;;;9.21;68.57
71573;BME280;59408;51.032;9.410;2023-05-18T07:13:41;100086.28;;;9.26;68.08
71573;BME280;59408;51.032;9.410;2023-05-18T07:16:07;100090.38;;;9.50;67.42
71573;BME280;59408;51.032;9.410;2023-05-18T07:18:34;100085.72;;;9.65;69.01
71573;BME280;59408;51.032;9.410;2023-05-18T07:21:01;100086.41;;;9.93;67.76
71573;BME280;59408;51.032;9.410;2023-05-18T07:23:29;100081.19;;;10.18;67.14
71573;BME280;59408;51.032;9.410;2023-05-18T07:25:56;100081.59;;;10.34;66.70
71573;BME280;59408;51.032;9.410;2023-05-18T07:28:22;100082.69;;;10.55;66.14
71573;BME280;59408;51.032;9.410;2023-05-18T07:30:49;100088.13;;;10.78;66.55
71573;BME280;59408;51.032;9.410;2023-05-18T07:33:15;100078.09;;;11.04;64.29
71573;BME280;59408;51.032;9.410;2023-05-18T07:35:42;100081.63;;;11.05;64.23
71573;BME280;59408;51.032;9.410;2023-05-18T07:38:09;100076.25;;;11.30;63.07
71573;BME280;59408;51.032;9.410;2023-05-18T07:40:38;100075.66;;;11.51;61.56
71573;BME280;59408;51.032;9.410;2023-05-18T07:43:04;100075.63;;;11.42;61.09
71573;BME280;59408;51.032;9.410;2023-05-18T07:45:31;100071.66;;;11.74;62.59
71573;BME280;59408;51.032;9.410;2023-05-18T07:47:58;100074.41;;;11.83;62.04
71573;BME280;59408;51.032;9.410;2023-05-18T07:50:25;100066.53;;;12.16;59.84
71573;BME280;59408;51.032;9.410;2023-05-18T07:52:51;100074.06;;;12.27;58.16
71573;BME280;59408;51.032;9.410;2023-05-18T07:55:18;100086.09;;;12.52;58.01
71573;BME280;59408;51.032;9.410;2023-05-18T07:57:46;100079.09;;;12.72;57.10
71573;BME280;59408;51.032;9.410;2023-05-18T08:00:14;100075.88;;;12.70;57.25
71573;BME280;59408;51.032;9.410;2023-05-18T08:02:41;100074.31;;;12.98;57.66
71573;BME280;59408;51.032;9.410;2023-05-18T08:05:09;100079.13;;;13.31;56.85
71573;BME280;59408;51.032;9.410;2023-05-18T08:07:35;100079.13;;;13.39;57.57
71573;BME280;59408;51.032;9.410;2023-05-18T08:10:02;100079.31;;;13.64;56.21
71573;BME280;59408;51.032;9.410;2023-05-18T08:12:29;100078.81;;;13.62;56.14
71573;BME280;59408;51.032;9.410;2023-05-18T08:14:57;100074.34;;;13.98;54.93
71573;BME280;59408;51.032;9.410;2023-05-18T08:17:24;100076.06;;;14.03;53.97
71573;BME280;59408;51.032;9.410;2023-05-18T08:19:50;100080.34;;;14.13;52.87
71573;BME280;59408;51.032;9.410;2023-05-18T08:22:17;100082.38;;;14.37;54.29
71573;BME280;59408;51.032;9.410;2023-05-18T08:24:43;100074.97;;;14.49;53.20
71573;BME280;59408;51.032;9.410;2023-05-18T08:27:10;100070.75;;;14.52;52.25
71573;BME280;59408;51.032;9.410;2023-05-18T08:29:37;100071.72;;;14.68;52.76
71573;BME280;59408;51.032;9.410;2023-05-18T08:32:06;100059.16;;;14.79;51.32
71573;BME280;59408;51.032;9.410;2023-05-18T08:34:33;100068.34;;;15.07;50.39
71573;BME280;59408;51.032;9.410;2023-05-18T08:36:59;100063.50;;;15.04;51.24
71573;BME280;59408;51.032;9.410;2023-05-18T08:39:26;100047.72;;;15.01;52.51
71573;BME280;59408;51.032;9.410;2023-05-18T08:41:56;100058.38;;;15.27;50.25
71573;BME280;59408;51.032;9.410;2023-05-18T08:44:30;100049.19;;;15.48;50.82
71573;BME280;59408;51.032;9.410;2023-05-18T08:46:59;100045.75;;;15.91;49.11
71573;BME280;59408;51.032;9.410;2023-05-18T08:49:28;100045.31;;;15.89;51.80
71573;BME280;59408;51.032;9.410;2023-05-18T08:51:59;100046.84;;;16.30;49.02
71573;BME280;59408;51.032;9.410;2023-05-18T08:54:29;100042.06;;;16.42;48.75
71573;BME280;59408;51.032;9.410;2023-05-18T08:56:57;100046.94;;;16.33;48.86
71573;BME280;59408;51.032;9.410;2023-05-18T08:59:26;100043.28;;;16.73;48.11
71573;BME280;59408;51.032;9.410;2023-05-18T09:01:55;100043.03;;;16.93;46.05
71573;BME280;59408;51.032;9.410;2023-05-18T09:04:22;100053.06;;;17.02;47.30
71573;BME280;59408;51.032;9.410;2023-05-18T09:06:52;100048.22;;;17.14;48.47
71573;BME280;59408;51.032;9.410;2023-05-18T09:09:20;100046.41;;;17.38;46.32
71573;BME280;59408;51.032;9.410;2023-05-18T09:11:48;100048.38;;;17.37;48.30
71573;BME280;59408;51.032;9.410;2023-05-18T09:14:16;100049.91;;;17.69;44.87
71573;BME280;59408;51.032;9.410;2023-05-18T09:16:42;100047.88;;;17.51;46.06
71573;BME280;59408;51.032;9.410;2023-05-18T09:19:09;100046.00;;;17.90;45.86
71573;BME280;59408;51.032;9.410;2023-05-18T09:21:36;100048.97;;;18.20;43.18
71573;BME280;59408;51.032;9.410;2023-05-18T09:24:04;100057.09;;;18.13;43.67
71573;BME280;59408;51.032;9.410;2023-05-18T09:26:31;100050.13;;;18.19;43.72
71573;BME280;59408;51.032;9.410;2023-05-18T09:28:58;100043.00;;;17.98;43.25
71573;BME280;59408;51.032;9.410;2023-05-18T09:31:25;100037.69;;;18.28;43.17
71573;BME280;59408;51.032;9.410;2023-05-18T09:33:52;100044.59;;;18.19;44.81
71573;BME280;59408;51.032;9.410;2023-05-18T09:36:23;100042.81;;;18.49;41.78
71573;BME280;59408;51.032;9.410;2023-05-18T09:38:50;100037.50;;;18.83;44.46
71573;BME280;59408;51.032;9.410;2023-05-18T09:41:19;100043.41;;;19.07;43.13
71573;BME280;59408;51.032;9.410;2023-05-18T09:43:47;100047.53;;;19.17;42.00
71573;BME280;59408;51.032;9.410;2023-05-18T09:46:13;100042.44;;;19.19;43.42
71573;BME280;59408;51.032;9.410;2023-05-18T09:48:50;100041.19;;;19.39;40.55
71573;BME280;59408;51.032;9.410;2023-05-18T09:51:17;100035.72;;;18.29;42.62
71573;BME280;59408;51.032;9.410;2023-05-18T09:53:46;100028.63;;;18.96;42.33
71573;BME280;59408;51.032;9.410;2023-05-18T09:56:16;100028.97;;;19.44;44.70
71573;BME280;59408;51.032;9.410;2023-05-18T09:58:45;100034.38;;;19.63;39.79
71573;BME280;59408;51.032;9.410;2023-05-18T10:01:12;100036.63;;;19.54;38.02
71573;BME280;59408;51.032;9.410;2023-05-18T10:03:39;100029.13;;;19.28;40.50
71573;BME280;59408;51.032;9.410;2023-05-18T10:06:07;100037.88;;;19.57;39.75
71573;BME280;59408;51.032;9.410;2023-05-18T10:08:35;100034.09;;;19.72;42.08
71573;BME280;59408;51.032;9.410;2023-05-18T10:11:01;100029.56;;;19.57;38.28
71573;BME280;59408;51.032;9.410;2023-05-18T10:13:29;100031.88;;;19.02;41.31
71573;BME280;59408;51.032;9.410;2023-05-18T10:15:59;100022.91;;;19.08;41.37
71573;BME280;59408;51.032;9.410;2023-05-18T10:18:27;100022.34;;;19.48;40.49
71573;BME280;59408;51.032;9.410;2023-05-18T10:20:56;100023.75;;;19.99;38.38
71573;BME280;59408;51.032;9.410;2023-05-18T10:23:30;100014.13;;;20.19;40.79
71573;BME280;59408;51.032;9.410;2023-05-18T10:25:57;100022.72;;;20.14;42.79
71573;BME280;59408;51.032;9.410;2023-05-18T10:28:25;100030.78;;;20.63;39.47
71573;BME280;59408;51.032;9.410;2023-05-18T10:30:54;100017.03;;;20.00;39.89
71573;BME280;59408;51.032;9.410;2023-05-18T10:33:24;100020.78;;;20.51;40.25
71573;BME280;59408;51.032;9.410;2023-05-18T10:35:56;100023.31;;;19.93;40.41
71573;BME280;59408;51.032;9.410;2023-05-18T10:38:24;100019.84;;;20.03;39.84
71573;BME280;59408;51.032;9.410;2023-05-18T10:40:54;100015.00;;;19.93;40.47
71573;BME280;59408;51.032;9.410;2023-05-18T10:43:22;100014.09;;;20.56;41.78
71573;BME280;59408;51.032;9.410;2023-05-18T10:45:52;100016.28;;;21.28;40.83
71573;BME280;59408;51.032;9.410;2023-05-18T10:48:20;100009.53;;;21.29;41.11
71573;BME280;59408;51.032;9.410;2023-05-18T10:50:50;100005.41;;;20.57;39.87
71573;BME280;59408;51.032;9.410;2023-05-18T10:53:18;99998.75;;;20.25;41.53
71573;BME280;59408;51.032;9.410;2023-05-18T10:55:46;100002.53;;;20.13;40.12
71573;BME280;59408;51.032;9.410;2023-05-18T10:58:14;100009.47;;;19.63;41.75
71573;BME280;59408;51.032;9.410;2023-05-18T11:00:47;100014.47;;;18.75;40.73
71573;BME280;59408;51.032;9.410;2023-05-18T11:03:15;100009.63;;;19.77;43.88
71573;BME280;59408;51.032;9.410;2023-05-18T11:05:43;99999.94;;;19.94;41.37
71573;BME280;59408;51.032;9.410;2023-05-18T11:08:23;100003.72;;;20.49;41.17
71573;BME280;59408;51.032;9.410;2023-05-18T11:10:58;99996.63;;;20.52;39.16
71573;BME280;59408;51.032;9.410;2023-05-18T11:13:27;99995.50;;;19.86;38.35
71573;BME280;59408;51.032;9.410;2023-05-18T11:16:07;99993.81;;;19.74;38.36
71573;BME280;59408;51.032;9.410;2023-05-18T11:18:37;99994.09;;;19.66;39.89
71573;BME280;59408;51.032;9.410;2023-05-18T11:21:20;99992.88;;;20.30;37.62
71573;BME280;59408;51.032;9.410;2023-05-18T11:24:14;99987.69;;;21.20;37.02
71573;BME280;59408;51.032;9.410;2023-05-18T11:26:41;99986.94;;;21.30;40.31
71573;BME280;59408;51.032;9.410;2023-05-18T11:29:19;99982.31;;;21.59;37.42
71573;BME280;59408;51.032;9.410;2023-05-18T11:31:47;99985.16;;;21.70;36.18
71573;BME280;59408;51.032;9.410;2023-05-18T11:34:33;99985.47;;;21.54;39.61
71573;BME280;59408;51.032;9.410;2023-05-18T11:37:02;99991.22;;;21.90;38.05
71573;BME280;59408;51.032;9.410;2023-05-18T11:39:31;99987.75;;;22.28;36.97
71573;BME280;59408;51.032;9.410;2023-05-18T11:41:59;99988.97;;;22.59;35.70
71573;BME280;59408;51.032;9.410;2023-05-18T11:44:27;99983.81;;;22.72;34.93
71573;BME280;59408;51.032;9.410;2023-05-18T11:46:58;99977.44;;;22.89;34.94
71573;BME280;59408;51.032;9.410;2023-05-18T11:49:26;99981.81;;;22.90;36.23
71573;BME280;59408;51.032;9.410;2023-05-18T11:52:01;99986.19;;;23.27;36.52
71573;BME280;59408;51.032;9.410;2023-05-18T11:54:33;99979.84;;;22.62;33.40
71573;BME280;59408;51.032;9.410;2023-05-18T11:57:00;99974.28;;;22.80;37.44
71573;BME280;59408;51.032;9.410;2023-05-18T11:59:32;99973.41;;;22.23;37.38
71573;BME280;59408;51.032;9.410;2023-05-18T12:02:00;99973.50;;;22.83;35.88
71573;BME280;59408;51.032;9.410;2023-05-18T12:04:27;99978.63;;;23.31;35.19
71573;BME280;59408;51.032;9.410;2023-05-18T12:06:55;99971.06;;;23.20;33.58
71573;BME280;59408;51.032;9.410;2023-05-18T12:09:23;99980.88;;;23.64;32.20
71573;BME280;59408;51.032;9.410;2023-05-18T12:11:51;99982.59;;;23.08;33.54
71573;BME280;59408;51.032;9.410;2023-05-18T12:14:20;99987.00;;;22.60;35.80
71573;BME280;59408;51.032;9.410;2023-05-18T12:16:48;99973.41;;;23.33;33.87
71573;BME280;59408;51.032;9.410;2023-05-18T12:19:16;99972.16;;;23.51;35.27
71573;BME280;59408;51.032;9.410;2023-05-18T12:21:43;99977.78;;;23.48;32.17
71573;BME280;59408;51.032;9.410;2023-05-18T12:24:10;99971.44;;;23.19;36.20
71573;BME280;59408;51.032;9.410;2023-05-18T12:26:36;99973.03;;;23.34;37.21
71573;BME280;59408;51.032;9.410;2023-05-18T12:29:04;99976.16;;;23.50;35.25
71573;BME280;59408;51.032;9.410;2023-05-18T12:31:32;99967.44;;;22.10;35.02
71573;BME280;59408;51.032;9.410;2023-05-18T12:34:00;99964.50;;;21.64;39.87
71573;BME280;59408;51.032;9.410;2023-05-18T12:36:27;99962.38;;;22.65;39.35
71573;BME280;59408;51.032;9.410;2023-05-18T12:38:53;99960.69;;;23.32;34.17
71573;BME280;59408;51.032;9.410;2023-05-18T12:41:21;99963.09;;;23.22;35.33
71573;BME280;59408;51.032;9.410;2023-05-18T12:43:48;99970.66;;;23.22;36.59
71573;BME280;59408;51.032;9.410;2023-05-18T12:46:16;99967.47;;;23.38;36.40
71573;BME280;59408;51.032;9.410;2023-05-18T12:48:45;99966.75;;;22.84;35.86
71573;BME280;59408;51.032;9.410;2023-05-18T12:51:16;99968.28;;;23.10;37.42
71573;BME280;59408;51.032;9.410;2023-05-18T12:53:47;99969.00;;;23.42;37.05
71573;BME280;59408;51.032;9.410;2023-05-18T12:56:14;99946.09;;;24.01;34.18
71573;BME280;59408;51.032;9.410;2023-05-18T12:58:54;99948.38;;;24.16;35.85
71573;BME280;59408;51.032;9.410;2023-05-18T13:01:22;99943.47;;;23.65;34.84
71573;BME280;59408;51.032;9.410;2023-05-18T13:03:54;99942.06;;;24.12;34.94